Current Weather

Dane County Rgnl/Truax Fld

Madison, Wisconsin (KMSN)

Report from: Friday, April 19, 2024 4:53 AM CDT
Current time: Friday, April 19, 2024 5:20 AM CDT

Nearby weather – Weather history – Daily summaries
Weather forecast

Temperature2.8°C (37.0°F)
Wind chill0.2°C (32.4°F)
Dew point-3.9°C (25.0°F)
Winds 5 kts (2.6 m/s, 5.8 mph) West-Northwest (290°)
Visibility10 mi. (16.1 km)
Clouds Sky clear
Altimeter30.07 in.Hg (1018 mB)
Relative humidity61 %
Density altitude-1,595 ft. (-486 m)
Sea-level pressure101.9 kPa (1019 mB, 30.08 in.Hg)
Remarks Fully automated report
Automated weather observing station with precipitation discriminator
Flight conditions Visual Meteorological Conditions
Raw dataKMSN 190953Z AUTO 29005KT 10SM CLR 03/M04 A3007 RMK AO2 SLP187 T00281039
An error has occurred. This application may no longer respond until reloaded. Reload 🗙